sensor_id;sensor_type;location;lat;lon;timestamp;temperature;humidity
74657;DHT22;63185;45.642;13.764;2024-03-23T00:52:48;15.70;54.40
74657;DHT22;63185;45.642;13.764;2024-03-23T00:55:13;15.60;54.50
74657;DHT22;63185;45.642;13.764;2024-03-23T00:57:39;15.60;54.00
74657;DHT22;63185;45.642;13.764;2024-03-23T01:00:07;15.60;53.80
74657;DHT22;63185;45.642;13.764;2024-03-23T01:02:35;15.50;54.30
74657;DHT22;63185;45.642;13.764;2024-03-23T01:05:01;15.60;54.40
74657;DHT22;63185;45.642;13.764;2024-03-23T01:07:26;15.60;54.30
74657;DHT22;63185;45.642;13.764;2024-03-23T01:09:52;15.50;53.60
74657;DHT22;63185;45.642;13.764;2024-03-23T01:12:18;15.50;52.80
74657;DHT22;63185;45.642;13.764;2024-03-23T01:14:44;15.50;53.10
74657;DHT22;63185;45.642;13.764;2024-03-23T01:17:09;15.50;53.00
74657;DHT22;63185;45.642;13.764;2024-03-23T01:19:35;15.50;53.80
74657;DHT22;63185;45.642;13.764;2024-03-23T01:22:01;15.50;54.30
74657;DHT22;63185;45.642;13.764;2024-03-23T01:24:27;15.40;55.00
74657;DHT22;63185;45.642;13.764;2024-03-23T01:26:52;15.40;55.30
74657;DHT22;63185;45.642;13.764;2024-03-23T01:29:18;15.40;55.90
74657;DHT22;63185;45.642;13.764;2024-03-23T01:31:43;15.30;56.10
74657;DHT22;63185;45.642;13.764;2024-03-23T01:34:09;15.30;56.50
74657;DHT22;63185;45.642;13.764;2024-03-23T01:36:35;15.20;56.70
74657;DHT22;63185;45.642;13.764;2024-03-23T01:39:00;15.10;56.40
74657;DHT22;63185;45.642;13.764;2024-03-23T01:41:26;15.10;56.40
74657;DHT22;63185;45.642;13.764;2024-03-23T01:43:53;15.10;56.70
74657;DHT22;63185;45.642;13.764;2024-03-23T01:46:20;15.10;57.10
74657;DHT22;63185;45.642;13.764;2024-03-23T01:48:46;15.00;57.00
74657;DHT22;63185;45.642;13.764;2024-03-23T01:51:13;15.00;56.70
74657;DHT22;63185;45.642;13.764;2024-03-23T01:53:38;14.90;56.60
74657;DHT22;63185;45.642;13.764;2024-03-23T01:56:05;14.90;56.90
74657;DHT22;63185;45.642;13.764;2024-03-23T01:58:30;14.90;56.00
74657;DHT22;63185;45.642;13.764;2024-03-23T02:00:57;14.90;55.70
74657;DHT22;63185;45.642;13.764;2024-03-23T02:03:24;14.90;55.60
74657;DHT22;63185;45.642;13.764;2024-03-23T02:05:51;14.90;56.30
74657;DHT22;63185;45.642;13.764;2024-03-23T02:08:18;14.80;57.10
74657;DHT22;63185;45.642;13.764;2024-03-23T02:10:45;14.90;57.20
74657;DHT22;63185;45.642;13.764;2024-03-23T02:13:10;14.90;57.20
74657;DHT22;63185;45.642;13.764;2024-03-23T02:15:37;14.90;57.30
74657;DHT22;63185;45.642;13.764;2024-03-23T02:18:02;14.90;57.90
74657;DHT22;63185;45.642;13.764;2024-03-23T02:20:28;14.80;57.80
74657;DHT22;63185;45.642;13.764;2024-03-23T02:22:54;14.80;57.70
74657;DHT22;63185;45.642;13.764;2024-03-23T02:25:19;14.80;57.70
74657;DHT22;63185;45.642;13.764;2024-03-23T02:27:45;14.70;58.20
74657;DHT22;63185;45.642;13.764;2024-03-23T02:30:10;14.70;58.40
74657;DHT22;63185;45.642;13.764;2024-03-23T02:32:36;14.70;58.50
74657;DHT22;63185;45.642;13.764;2024-03-23T02:35:02;14.70;58.70
74657;DHT22;63185;45.642;13.764;2024-03-23T02:37:27;14.70;58.90
74657;DHT22;63185;45.642;13.764;2024-03-23T02:39:53;14.60;58.70
74657;DHT22;63185;45.642;13.764;2024-03-23T02:42:19;14.70;59.10
74657;DHT22;63185;45.642;13.764;2024-03-23T02:44:45;14.60;59.20
74657;DHT22;63185;45.642;13.764;2024-03-23T02:47:11;14.60;59.40
74657;DHT22;63185;45.642;13.764;2024-03-23T02:49:36;14.60;59.20
74657;DHT22;63185;45.642;13.764;2024-03-23T02:52:02;14.60;58.80
74657;DHT22;63185;45.642;13.764;2024-03-23T02:54:28;14.50;59.00
74657;DHT22;63185;45.642;13.764;2024-03-23T02:56:54;14.60;58.70
74657;DHT22;63185;45.642;13.764;2024-03-23T02:59:19;14.60;58.50
74657;DHT22;63185;45.642;13.764;2024-03-23T03:01:45;14.50;58.50
74657;DHT22;63185;45.642;13.764;2024-03-23T03:04:11;14.50;58.60
74657;DHT22;63185;45.642;13.764;2024-03-23T03:06:36;14.50;58.60
74657;DHT22;63185;45.642;13.764;2024-03-23T03:09:02;14.50;59.20
74657;DHT22;63185;45.642;13.764;2024-03-23T03:11:28;14.40;59.30
74657;DHT22;63185;45.642;13.764;2024-03-23T03:13:54;14.40;59.20
74657;DHT22;63185;45.642;13.764;2024-03-23T03:16:19;14.40;59.30
74657;DHT22;63185;45.642;13.764;2024-03-23T03:18:45;14.30;59.40
74657;DHT22;63185;45.642;13.764;2024-03-23T03:21:12;14.30;59.10
74657;DHT22;63185;45.642;13.764;2024-03-23T03:23:38;14.30;58.90
74657;DHT22;63185;45.642;13.764;2024-03-23T03:26:04;14.40;58.90
74657;DHT22;63185;45.642;13.764;2024-03-23T03:28:33;14.30;58.80
74657;DHT22;63185;45.642;13.764;2024-03-23T03:31:00;14.40;58.90
74657;DHT22;63185;45.642;13.764;2024-03-23T03:33:27;14.40;59.00
74657;DHT22;63185;45.642;13.764;2024-03-23T03:35:53;14.30;59.30
74657;DHT22;63185;45.642;13.764;2024-03-23T03:38:19;14.30;59.80
74657;DHT22;63185;45.642;13.764;2024-03-23T03:40:44;14.30;60.20
74657;DHT22;63185;45.642;13.764;2024-03-23T03:43:10;14.20;60.40
74657;DHT22;63185;45.642;13.764;2024-03-23T03:45:36;14.20;60.30
74657;DHT22;63185;45.642;13.764;2024-03-23T03:48:02;14.10;60.30
74657;DHT22;63185;45.642;13.764;2024-03-23T03:50:28;14.10;59.20
74657;DHT22;63185;45.642;13.764;2024-03-23T03:52:53;14.30;57.50
74657;DHT22;63185;45.642;13.764;2024-03-23T03:55:19;14.40;57.70
74657;DHT22;63185;45.642;13.764;2024-03-23T03:57:45;14.40;58.00
74657;DHT22;63185;45.642;13.764;2024-03-23T04:00:11;14.30;58.80
74657;DHT22;63185;45.642;13.764;2024-03-23T04:02:40;14.40;59.00
74657;DHT22;63185;45.642;13.764;2024-03-23T04:05:06;14.30;59.10
74657;DHT22;63185;45.642;13.764;2024-03-23T04:07:33;14.20;59.80
74657;DHT22;63185;45.642;13.764;2024-03-23T04:09:59;14.20;59.90
74657;DHT22;63185;45.642;13.764;2024-03-23T04:12:25;14.20;59.10
74657;DHT22;63185;45.642;13.764;2024-03-23T04:14:50;14.20;58.70
74657;DHT22;63185;45.642;13.764;2024-03-23T04:17:16;14.30;58.50
74657;DHT22;63185;45.642;13.764;2024-03-23T04:19:42;14.30;58.40
74657;DHT22;63185;45.642;13.764;2024-03-23T04:22:08;14.40;58.60
74657;DHT22;63185;45.642;13.764;2024-03-23T04:24:33;14.40;59.10
74657;DHT22;63185;45.642;13.764;2024-03-23T04:26:59;14.30;59.70
74657;DHT22;63185;45.642;13.764;2024-03-23T04:29:25;14.30;60.20
74657;DHT22;63185;45.642;13.764;2024-03-23T04:31:52;14.30;60.50
74657;DHT22;63185;45.642;13.764;2024-03-23T04:34:18;14.30;60.60
74657;DHT22;63185;45.642;13.764;2024-03-23T04:36:44;14.30;60.30
74657;DHT22;63185;45.642;13.764;2024-03-23T04:39:09;14.30;60.40
74657;DHT22;63185;45.642;13.764;2024-03-23T04:41:35;14.30;60.80
74657;DHT22;63185;45.642;13.764;2024-03-23T04:44:01;14.20;61.10
74657;DHT22;63185;45.642;13.764;2024-03-23T04:46:27;14.20;61.20
74657;DHT22;63185;45.642;13.764;2024-03-23T04:48:52;14.20;60.70
74657;DHT22;63185;45.642;13.764;2024-03-23T04:51:24;14.20;60.50
74657;DHT22;63185;45.642;13.764;2024-03-23T04:53:50;14.10;60.80
74657;DHT22;63185;45.642;13.764;2024-03-23T04:56:16;14.10;60.80
74657;DHT22;63185;45.642;13.764;2024-03-23T04:58:43;14.10;60.90
74657;DHT22;63185;45.642;13.764;2024-03-23T05:01:10;14.10;60.80
74657;DHT22;63185;45.642;13.764;2024-03-23T05:03:36;14.10;60.70
74657;DHT22;63185;45.642;13.764;2024-03-23T05:06:01;14.10;60.60
74657;DHT22;63185;45.642;13.764;2024-03-23T05:08:27;14.10;59.70
74657;DHT22;63185;45.642;13.764;2024-03-23T05:10:52;14.10;58.80
74657;DHT22;63185;45.642;13.764;2024-03-23T05:13:18;14.10;58.80
74657;DHT22;63185;45.642;13.764;2024-03-23T05:15:44;14.20;58.60
74657;DHT22;63185;45.642;13.764;2024-03-23T05:18:09;14.20;58.20
74657;DHT22;63185;45.642;13.764;2024-03-23T05:20:35;14.20;58.10
74657;DHT22;63185;45.642;13.764;2024-03-23T05:23:01;14.20;58.30
74657;DHT22;63185;45.642;13.764;2024-03-23T05:25:27;14.30;57.80
74657;DHT22;63185;45.642;13.764;2024-03-23T05:27:52;14.30;57.80
74657;DHT22;63185;45.642;13.764;2024-03-23T05:30:18;14.30;57.80
74657;DHT22;63185;45.642;13.764;2024-03-23T05:32:44;14.40;58.40
74657;DHT22;63185;45.642;13.764;2024-03-23T05:35:10;14.40;58.20
74657;DHT22;63185;45.642;13.764;2024-03-23T05:37:36;14.40;57.70
74657;DHT22;63185;45.642;13.764;2024-03-23T05:40:03;14.40;57.70
74657;DHT22;63185;45.642;13.764;2024-03-23T05:42:29;14.50;57.30
74657;DHT22;63185;45.642;13.764;2024-03-23T05:44:55;14.60;57.10
74657;DHT22;63185;45.642;13.764;2024-03-23T05:47:20;14.60;56.90
74657;DHT22;63185;45.642;13.764;2024-03-23T05:49:46;14.70;56.90
74657;DHT22;63185;45.642;13.764;2024-03-23T05:52:13;14.80;56.80
74657;DHT22;63185;45.642;13.764;2024-03-23T05:54:38;14.80;56.40
74657;DHT22;63185;45.642;13.764;2024-03-23T05:57:04;14.80;56.60
74657;DHT22;63185;45.642;13.764;2024-03-23T05:59:33;14.70;56.90
74657;DHT22;63185;45.642;13.764;2024-03-23T06:01:58;14.80;57.00
74657;DHT22;63185;45.642;13.764;2024-03-23T06:04:24;14.90;56.90
74657;DHT22;63185;45.642;13.764;2024-03-23T06:06:51;14.90;56.80
74657;DHT22;63185;45.642;13.764;2024-03-23T06:09:18;14.90;57.10
74657;DHT22;63185;45.642;13.764;2024-03-23T06:11:44;14.90;57.10
74657;DHT22;63185;45.642;13.764;2024-03-23T06:14:10;15.00;57.10
74657;DHT22;63185;45.642;13.764;2024-03-23T06:16:36;15.00;57.40
74657;DHT22;63185;45.642;13.764;2024-03-23T06:19:02;15.00;57.80
74657;DHT22;63185;45.642;13.764;2024-03-23T06:21:29;15.10;57.80
74657;DHT22;63185;45.642;13.764;2024-03-23T06:23:55;15.10;57.40
74657;DHT22;63185;45.642;13.764;2024-03-23T06:26:21;15.20;57.40
74657;DHT22;63185;45.642;13.764;2024-03-23T06:28:47;15.20;57.00
74657;DHT22;63185;45.642;13.764;2024-03-23T06:31:13;15.30;56.40
74657;DHT22;63185;45.642;13.764;2024-03-23T06:33:39;15.30;56.40
74657;DHT22;63185;45.642;13.764;2024-03-23T06:36:07;15.40;56.10
74657;DHT22;63185;45.642;13.764;2024-03-23T06:38:34;15.40;56.00
74657;DHT22;63185;45.642;13.764;2024-03-23T06:41:02;15.50;55.80
74657;DHT22;63185;45.642;13.764;2024-03-23T06:43:28;15.60;55.00
74657;DHT22;63185;45.642;13.764;2024-03-23T06:45:54;15.60;54.70
74657;DHT22;63185;45.642;13.764;2024-03-23T06:48:20;15.70;54.50
74657;DHT22;63185;45.642;13.764;2024-03-23T06:50:46;15.80;54.30
74657;DHT22;63185;45.642;13.764;2024-03-23T06:53:13;15.90;53.80
74657;DHT22;63185;45.642;13.764;2024-03-23T06:55:39;16.10;53.10
74657;DHT22;63185;45.642;13.764;2024-03-23T06:58:04;16.20;52.60
74657;DHT22;63185;45.642;13.764;2024-03-23T07:00:30;16.30;52.30
74657;DHT22;63185;45.642;13.764;2024-03-23T07:02:56;16.40;52.10
74657;DHT22;63185;45.642;13.764;2024-03-23T07:05:22;16.60;51.40
74657;DHT22;63185;45.642;13.764;2024-03-23T07:07:47;16.80;51.10
74657;DHT22;63185;45.642;13.764;2024-03-23T07:10:13;17.00;50.80
74657;DHT22;63185;45.642;13.764;2024-03-23T07:12:39;17.20;50.20
74657;DHT22;63185;45.642;13.764;2024-03-23T07:15:04;17.30;50.10
74657;DHT22;63185;45.642;13.764;2024-03-23T07:17:30;17.50;49.50
74657;DHT22;63185;45.642;13.764;2024-03-23T07:19:58;17.80;48.60
74657;DHT22;63185;45.642;13.764;2024-03-23T07:22:23;18.10;48.00
74657;DHT22;63185;45.642;13.764;2024-03-23T07:24:49;18.20;47.40
74657;DHT22;63185;45.642;13.764;2024-03-23T07:27:15;18.40;47.30
74657;DHT22;63185;45.642;13.764;2024-03-23T07:29:40;18.40;47.20
74657;DHT22;63185;45.642;13.764;2024-03-23T07:32:06;18.60;46.90
74657;DHT22;63185;45.642;13.764;2024-03-23T07:34:32;18.90;46.30
74657;DHT22;63185;45.642;13.764;2024-03-23T07:36:58;19.10;45.80
74657;DHT22;63185;45.642;13.764;2024-03-23T07:39:23;19.10;45.80
74657;DHT22;63185;45.642;13.764;2024-03-23T07:41:50;19.30;45.20
74657;DHT22;63185;45.642;13.764;2024-03-23T07:44:15;19.50;45.20
74657;DHT22;63185;45.642;13.764;2024-03-23T07:46:41;19.40;45.20
74657;DHT22;63185;45.642;13.764;2024-03-23T07:49:07;19.30;44.90
74657;DHT22;63185;45.642;13.764;2024-03-23T07:51:32;19.10;45.10
74657;DHT22;63185;45.642;13.764;2024-03-23T07:53:59;19.00;45.40
74657;DHT22;63185;45.642;13.764;2024-03-23T07:56:26;19.00;45.40
74657;DHT22;63185;45.642;13.764;2024-03-23T07:58:51;18.90;45.70
74657;DHT22;63185;45.642;13.764;2024-03-23T08:01:17;18.80;45.60
74657;DHT22;63185;45.642;13.764;2024-03-23T08:03:46;18.80;45.00
74657;DHT22;63185;45.642;13.764;2024-03-23T08:06:16;18.70;45.70
74657;DHT22;63185;45.642;13.764;2024-03-23T08:08:44;18.70;45.60
74657;DHT22;63185;45.642;13.764;2024-03-23T08:11:10;18.80;45.70
74657;DHT22;63185;45.642;13.764;2024-03-23T08:13:39;18.90;45.90
74657;DHT22;63185;45.642;13.764;2024-03-23T08:16:05;19.00;46.00
74657;DHT22;63185;45.642;13.764;2024-03-23T08:18:31;19.00;45.40
74657;DHT22;63185;45.642;13.764;2024-03-23T08:21:00;19.00;45.60
74657;DHT22;63185;45.642;13.764;2024-03-23T08:23:28;19.00;45.60
74657;DHT22;63185;45.642;13.764;2024-03-23T08:26:04;19.20;45.20
74657;DHT22;63185;45.642;13.764;2024-03-23T08:28:30;19.40;45.10
74657;DHT22;63185;45.642;13.764;2024-03-23T08:30:56;19.20;44.70
74657;DHT22;63185;45.642;13.764;2024-03-23T08:33:23;19.20;44.70
74657;DHT22;63185;45.642;13.764;2024-03-23T08:35:57;19.40;45.50
74657;DHT22;63185;45.642;13.764;2024-03-23T08:38:24;19.50;46.10
74657;DHT22;63185;45.642;13.764;2024-03-23T08:41:01;19.30;45.30
74657;DHT22;63185;45.642;13.764;2024-03-23T08:43:31;18.90;45.10
74657;DHT22;63185;45.642;13.764;2024-03-23T08:48:37;19.20;45.90
74657;DHT22;63185;45.642;13.764;2024-03-23T08:51:04;19.40;46.70
74657;DHT22;63185;45.642;13.764;2024-03-23T08:53:31;19.20;45.90
74657;DHT22;63185;45.642;13.764;2024-03-23T08:55:57;18.90;45.70
74657;DHT22;63185;45.642;13.764;2024-03-23T08:58:27;18.80;46.00
74657;DHT22;63185;45.642;13.764;2024-03-23T09:00:52;18.70;46.30
74657;DHT22;63185;45.642;13.764;2024-03-23T09:03:18;18.90;46.50
74657;DHT22;63185;45.642;13.764;2024-03-23T09:05:44;19.10;46.10
74657;DHT22;63185;45.642;13.764;2024-03-23T09:08:10;19.00;46.00
74657;DHT22;63185;45.642;13.764;2024-03-23T09:10:38;18.90;46.50
74657;DHT22;63185;45.642;13.764;2024-03-23T09:13:04;19.00;46.90
74657;DHT22;63185;45.642;13.764;2024-03-23T09:15:30;19.00;47.00
74657;DHT22;63185;45.642;13.764;2024-03-23T09:17:58;18.60;47.80
74657;DHT22;63185;45.642;13.764;2024-03-23T09:20:24;18.80;48.40
74657;DHT22;63185;45.642;13.764;2024-03-23T09:22:49;19.00;47.70
74657;DHT22;63185;45.642;13.764;2024-03-23T09:25:15;19.10;46.50
74657;DHT22;63185;45.642;13.764;2024-03-23T09:27:41;19.10;47.20
74657;DHT22;63185;45.642;13.764;2024-03-23T09:30:07;19.10;46.00
74657;DHT22;63185;45.642;13.764;2024-03-23T09:32:32;19.10;46.30
74657;DHT22;63185;45.642;13.764;2024-03-23T09:34:58;19.10;46.90
74657;DHT22;63185;45.642;13.764;2024-03-23T09:37:24;19.10;46.40
74657;DHT22;63185;45.642;13.764;2024-03-23T09:39:49;18.90;48.70
74657;DHT22;63185;45.642;13.764;2024-03-23T09:42:15;18.90;47.80
74657;DHT22;63185;45.642;13.764;2024-03-23T09:44:41;18.70;48.30
74657;DHT22;63185;45.642;13.764;2024-03-23T09:47:08;18.60;49.30
74657;DHT22;63185;45.642;13.764;2024-03-23T09:49:34;18.40;51.20
74657;DHT22;63185;45.642;13.764;2024-03-23T09:52:02;18.30;51.80
74657;DHT22;63185;45.642;13.764;2024-03-23T09:54:28;18.30;51.90
74657;DHT22;63185;45.642;13.764;2024-03-23T09:56:54;18.20;53.70
74657;DHT22;63185;45.642;13.764;2024-03-23T09:59:19;18.40;55.40
74657;DHT22;63185;45.642;13.764;2024-03-23T10:01:45;18.20;56.30
74657;DHT22;63185;45.642;13.764;2024-03-23T10:04:10;18.20;56.60
74657;DHT22;63185;45.642;13.764;2024-03-23T10:06:37;18.20;57.80
74657;DHT22;63185;45.642;13.764;2024-03-23T10:09:16;17.90;60.20
74657;DHT22;63185;45.642;13.764;2024-03-23T10:11:43;17.80;62.00
74657;DHT22;63185;45.642;13.764;2024-03-23T10:14:29;18.00;61.20
74657;DHT22;63185;45.642;13.764;2024-03-23T10:17:12;18.10;60.20
74657;DHT22;63185;45.642;13.764;2024-03-23T10:19:46;18.10;60.00
74657;DHT22;63185;45.642;13.764;2024-03-23T10:22:19;18.20;59.80
74657;DHT22;63185;45.642;13.764;2024-03-23T10:24:46;18.10;59.00
74657;DHT22;63185;45.642;13.764;2024-03-23T10:27:29;18.00;58.70
74657;DHT22;63185;45.642;13.764;2024-03-23T10:30:10;18.10;58.60
74657;DHT22;63185;45.642;13.764;2024-03-23T10:32:37;17.90;59.80
74657;DHT22;63185;45.642;13.764;2024-03-23T10:35:16;17.90;59.00
74657;DHT22;63185;45.642;13.764;2024-03-23T10:37:45;17.90;56.40
74657;DHT22;63185;45.642;13.764;2024-03-23T10:40:13;17.90;57.30
74657;DHT22;63185;45.642;13.764;2024-03-23T10:42:39;18.00;58.00
74657;DHT22;63185;45.642;13.764;2024-03-23T10:45:06;18.00;58.60
74657;DHT22;63185;45.642;13.764;2024-03-23T10:47:33;17.90;59.50
74657;DHT22;63185;45.642;13.764;2024-03-23T10:49:59;17.90;60.20
74657;DHT22;63185;45.642;13.764;2024-03-23T10:52:25;18.00;60.50
74657;DHT22;63185;45.642;13.764;2024-03-23T10:54:51;17.60;61.90
74657;DHT22;63185;45.642;13.764;2024-03-23T10:57:24;17.60;62.10
74657;DHT22;63185;45.642;13.764;2024-03-23T10:59:52;17.60;62.70
74657;DHT22;63185;45.642;13.764;2024-03-23T11:02:22;17.70;63.20
74657;DHT22;63185;45.642;13.764;2024-03-23T11:04:48;17.80;63.50
74657;DHT22;63185;45.642;13.764;2024-03-23T11:07:32;17.70;63.80
74657;DHT22;63185;45.642;13.764;2024-03-23T11:09:59;17.70;64.90
74657;DHT22;63185;45.642;13.764;2024-03-23T11:12:26;17.70;64.30
74657;DHT22;63185;45.642;13.764;2024-03-23T11:15:15;17.60;64.20
74657;DHT22;63185;45.642;13.764;2024-03-23T11:17:41;17.50;65.60
74657;DHT22;63185;45.642;13.764;2024-03-23T11:20:07;17.70;65.00
74657;DHT22;63185;45.642;13.764;2024-03-23T11:25:25;17.90;64.40
74657;DHT22;63185;45.642;13.764;2024-03-23T11:27:55;17.90;64.40
74657;DHT22;63185;45.642;13.764;2024-03-23T11:30:23;17.70;65.50
74657;DHT22;63185;45.642;13.764;2024-03-23T11:32:52;17.80;65.00
74657;DHT22;63185;45.642;13.764;2024-03-23T11:35:34;17.90;64.90
74657;DHT22;63185;45.642;13.764;2024-03-23T11:38:11;17.80;64.90
74657;DHT22;63185;45.642;13.764;2024-03-23T11:40:41;17.90;65.50
74657;DHT22;63185;45.642;13.764;2024-03-23T11:43:09;17.90;65.10
74657;DHT22;63185;45.642;13.764;2024-03-23T11:45:42;17.80;65.90
74657;DHT22;63185;45.642;13.764;2024-03-23T11:48:09;17.80;65.70
74657;DHT22;63185;45.642;13.764;2024-03-23T11:50:37;17.80;66.00
74657;DHT22;63185;45.642;13.764;2024-03-23T11:53:07;17.60;66.90
74657;DHT22;63185;45.642;13.764;2024-03-23T11:55:43;17.60;66.60
74657;DHT22;63185;45.642;13.764;2024-03-23T11:58:10;17.70;67.20
74657;DHT22;63185;45.642;13.764;2024-03-23T12:00:35;18.00;66.70
74657;DHT22;63185;45.642;13.764;2024-03-23T12:03:02;18.20;65.90
74657;DHT22;63185;45.642;13.764;2024-03-23T12:05:28;18.30;65.10
74657;DHT22;63185;45.642;13.764;2024-03-23T12:07:55;18.30;65.50
74657;DHT22;63185;45.642;13.764;2024-03-23T12:10:20;18.40;65.50
74657;DHT22;63185;45.642;13.764;2024-03-23T12:12:46;18.60;65.30
74657;DHT22;63185;45.642;13.764;2024-03-23T12:15:23;18.60;65.90
74657;DHT22;63185;45.642;13.764;2024-03-23T12:17:48;18.40;66.90
74657;DHT22;63185;45.642;13.764;2024-03-23T12:20:14;18.20;67.60
74657;DHT22;63185;45.642;13.764;2024-03-23T12:22:40;17.80;69.10
74657;DHT22;63185;45.642;13.764;2024-03-23T12:25:06;17.80;69.50
74657;DHT22;63185;45.642;13.764;2024-03-23T12:27:32;18.00;69.00
74657;DHT22;63185;45.642;13.764;2024-03-23T12:29:57;17.90;69.50
74657;DHT22;63185;45.642;13.764;2024-03-23T12:32:23;17.80;69.50
74657;DHT22;63185;45.642;13.764;2024-03-23T12:34:49;17.70;70.20
74657;DHT22;63185;45.642;13.764;2024-03-23T12:37:14;18.00;69.60
74657;DHT22;63185;45.642;13.764;2024-03-23T12:39:42;18.10;68.20
74657;DHT22;63185;45.642;13.764;2024-03-23T12:42:08;18.10;68.30
74657;DHT22;63185;45.642;13.764;2024-03-23T12:44:34;18.20;67.80
74657;DHT22;63185;45.642;13.764;2024-03-23T12:46:59;18.40;68.10
74657;DHT22;63185;45.642;13.764;2024-03-23T12:49:25;18.50;67.60
74657;DHT22;63185;45.642;13.764;2024-03-23T12:51:55;18.50;67.60
74657;DHT22;63185;45.642;13.764;2024-03-23T12:54:22;18.40;66.40
74657;DHT22;63185;45.642;13.764;2024-03-23T12:56:48;18.40;67.20
74657;DHT22;63185;45.642;13.764;2024-03-23T12:59:14;18.50;67.00
74657;DHT22;63185;45.642;13.764;2024-03-23T13:01:40;18.10;68.00
74657;DHT22;63185;45.642;13.764;2024-03-23T13:04:06;18.10;68.60
74657;DHT22;63185;45.642;13.764;2024-03-23T13:06:31;18.20;67.50
74657;DHT22;63185;45.642;13.764;2024-03-23T13:09:04;18.20;67.90
74657;DHT22;63185;45.642;13.764;2024-03-23T13:11:30;18.40;67.60
74657;DHT22;63185;45.642;13.764;2024-03-23T13:13:56;18.50;67.50
74657;DHT22;63185;45.642;13.764;2024-03-23T13:16:22;18.20;68.70
74657;DHT22;63185;45.642;13.764;2024-03-23T13:18:47;18.00;68.60
74657;DHT22;63185;45.642;13.764;2024-03-23T13:21:13;17.90;69.40
74657;DHT22;63185;45.642;13.764;2024-03-23T13:23:39;17.90;68.80
74657;DHT22;63185;45.642;13.764;2024-03-23T13:26:07;18.00;68.30
74657;DHT22;63185;45.642;13.764;2024-03-23T13:28:33;18.10;69.00
74657;DHT22;63185;45.642;13.764;2024-03-23T13:31:00;18.40;67.90
74657;DHT22;63185;45.642;13.764;2024-03-23T13:33:30;18.20;67.40
74657;DHT22;63185;45.642;13.764;2024-03-23T13:35:57;18.20;67.90
74657;DHT22;63185;45.642;13.764;2024-03-23T13:38:24;18.20;67.40
74657;DHT22;63185;45.642;13.764;2024-03-23T13:40:56;18.10;67.10
74657;DHT22;63185;45.642;13.764;2024-03-23T13:43:23;18.20;67.10
74657;DHT22;63185;45.642;13.764;2024-03-23T13:45:56;18.50;66.00
74657;DHT22;63185;45.642;13.764;2024-03-23T13:48:24;18.30;66.10
74657;DHT22;63185;45.642;13.764;2024-03-23T13:51:03;18.50;65.90
74657;DHT22;63185;45.642;13.764;2024-03-23T13:53:29;18.70;64.60
74657;DHT22;63185;45.642;13.764;2024-03-23T13:55:55;18.80;64.50
74657;DHT22;63185;45.642;13.764;2024-03-23T13:58:21;18.90;64.80
74657;DHT22;63185;45.642;13.764;2024-03-23T14:00:47;18.90;64.30
74657;DHT22;63185;45.642;13.764;2024-03-23T14:03:14;19.00;62.20
74657;DHT22;63185;45.642;13.764;2024-03-23T14:05:40;19.10;63.50
74657;DHT22;63185;45.642;13.764;2024-03-23T14:08:06;19.10;63.20
74657;DHT22;63185;45.642;13.764;2024-03-23T14:10:32;19.60;61.90
74657;DHT22;63185;45.642;13.764;2024-03-23T14:12:58;19.90;61.50
74657;DHT22;63185;45.642;13.764;2024-03-23T14:15:26;19.90;60.30
74657;DHT22;63185;45.642;13.764;2024-03-23T14:17:52;19.90;60.30
74657;DHT22;63185;45.642;13.764;2024-03-23T14:20:17;20.40;59.00
74657;DHT22;63185;45.642;13.764;2024-03-23T14:22:43;20.40;58.20
74657;DHT22;63185;45.642;13.764;2024-03-23T14:25:09;20.50;58.10
74657;DHT22;63185;45.642;13.764;2024-03-23T14:27:35;20.50;53.20
74657;DHT22;63185;45.642;13.764;2024-03-23T14:30:04;20.80;52.80
74657;DHT22;63185;45.642;13.764;2024-03-23T14:32:31;20.80;51.90
74657;DHT22;63185;45.642;13.764;2024-03-23T14:35:06;20.80;51.90
74657;DHT22;63185;45.642;13.764;2024-03-23T14:37:38;21.00;51.40
74657;DHT22;63185;45.642;13.764;2024-03-23T14:40:04;21.00;51.60
74657;DHT22;63185;45.642;13.764;2024-03-23T14:42:30;20.90;49.60
74657;DHT22;63185;45.642;13.764;2024-03-23T14:44:59;20.70;50.00
74657;DHT22;63185;45.642;13.764;2024-03-23T14:47:25;20.90;49.80
74657;DHT22;63185;45.642;13.764;2024-03-23T14:49:51;21.30;49.70
74657;DHT22;63185;45.642;13.764;2024-03-23T14:52:17;21.50;49.20
74657;DHT22;63185;45.642;13.764;2024-03-23T14:54:44;21.70;47.80
74657;DHT22;63185;45.642;13.764;2024-03-23T14:57:09;21.70;47.30
74657;DHT22;63185;45.642;13.764;2024-03-23T14:59:35;21.60;48.70
74657;DHT22;63185;45.642;13.764;2024-03-23T15:02:04;21.40;49.90
74657;DHT22;63185;45.642;13.764;2024-03-23T15:04:29;21.40;50.80
74657;DHT22;63185;45.642;13.764;2024-03-23T15:06:55;21.60;50.00
74657;DHT22;63185;45.642;13.764;2024-03-23T15:09:21;21.80;47.30
74657;DHT22;63185;45.642;13.764;2024-03-23T15:11:46;21.90;46.20
74657;DHT22;63185;45.642;13.764;2024-03-23T15:14:12;21.40;47.50
74657;DHT22;63185;45.642;13.764;2024-03-23T15:16:37;21.40;48.00
74657;DHT22;63185;45.642;13.764;2024-03-23T15:19:03;21.20;49.30
74657;DHT22;63185;45.642;13.764;2024-03-23T15:21:31;21.10;50.10
74657;DHT22;63185;45.642;13.764;2024-03-23T15:23:57;20.70;51.20
74657;DHT22;63185;45.642;13.764;2024-03-23T15:26:23;20.60;51.70
74657;DHT22;63185;45.642;13.764;2024-03-23T15:28:49;20.40;52.90
74657;DHT22;63185;45.642;13.764;2024-03-23T15:31:24;20.40;51.80
74657;DHT22;63185;45.642;13.764;2024-03-23T15:33:50;20.50;51.70
74657;DHT22;63185;45.642;13.764;2024-03-23T15:36:16;20.40;52.00
74657;DHT22;63185;45.642;13.764;2024-03-23T15:38:43;20.20;52.10
74657;DHT22;63185;45.642;13.764;2024-03-23T15:41:09;20.30;52.10
74657;DHT22;63185;45.642;13.764;2024-03-23T15:43:35;20.20;51.50
74657;DHT22;63185;45.642;13.764;2024-03-23T15:46:02;20.20;51.50
74657;DHT22;63185;45.642;13.764;2024-03-23T15:48:29;20.20;51.60
74657;DHT22;63185;45.642;13.764;2024-03-23T15:50:56;20.20;51.40
74657;DHT22;63185;45.642;13.764;2024-03-23T15:53:23;20.10;50.50
74657;DHT22;63185;45.642;13.764;2024-03-23T15:55:58;20.20;50.40
74657;DHT22;63185;45.642;13.764;2024-03-23T15:58:24;20.20;50.80
74657;DHT22;63185;45.642;13.764;2024-03-23T16:01:01;20.30;50.20
74657;DHT22;63185;45.642;13.764;2024-03-23T16:03:27;20.30;50.70
74657;DHT22;63185;45.642;13.764;2024-03-23T16:05:57;20.30;50.10
74657;DHT22;63185;45.642;13.764;2024-03-23T16:08:24;20.40;50.30
74657;DHT22;63185;45.642;13.764;2024-03-23T16:10:50;20.80;49.20